createdAt,value
2022-10-29T00:00:39.153Z,13.00
2022-10-29T00:01:38.456Z,12.70
2022-10-29T00:02:38.487Z,13.20
2022-10-29T00:03:38.381Z,13.20
2022-10-29T00:04:38.384Z,14.00
2022-10-29T00:05:38.361Z,13.40
2022-10-29T00:06:38.477Z,14.20
2022-10-29T00:07:38.332Z,14.30
2022-10-29T00:08:38.339Z,13.10
2022-10-29T00:09:38.325Z,13.70
2022-10-29T00:10:38.322Z,14.30
2022-10-29T00:11:38.320Z,13.80
2022-10-29T00:12:38.299Z,14.10
2022-10-29T00:13:38.274Z,14.00
2022-10-29T00:14:38.260Z,15.30
2022-10-29T00:15:38.248Z,14.30
2022-10-29T00:16:38.270Z,14.80
2022-10-29T00:17:38.228Z,14.70
2022-10-29T00:18:38.210Z,15.60
2022-10-29T00:19:38.248Z,15.40
2022-10-29T00:20:38.193Z,14.70
2022-10-29T00:21:38.219Z,15.20
2022-10-29T00:22:38.208Z,15.30
2022-10-29T00:23:38.164Z,15.90
2022-10-29T00:24:38.144Z,15.10
2022-10-29T00:25:38.651Z,16.50
2022-10-29T00:26:39.196Z,15.70
2022-10-29T00:27:38.125Z,16.90
2022-10-29T00:28:38.108Z,16.70
2022-10-29T00:29:38.776Z,15.80
2022-10-29T00:30:38.075Z,17.00
2022-10-29T00:31:38.184Z,15.60
2022-10-29T00:32:38.078Z,16.30
2022-10-29T00:33:38.980Z,15.90
2022-10-29T00:34:38.027Z,16.00
2022-10-29T00:35:38.019Z,17.20
2022-10-29T00:36:39.040Z,17.40
2022-10-29T00:37:38.626Z,17.20
2022-10-29T00:38:37.978Z,16.80
2022-10-29T00:39:37.971Z,16.90
2022-10-29T00:40:37.960Z,17.00
2022-10-29T00:41:37.989Z,17.10
2022-10-29T00:42:37.989Z,16.20
2022-10-29T00:43:38.015Z,17.50
2022-10-29T00:44:38.482Z,17.00
2022-10-29T00:45:37.920Z,17.90
2022-10-29T00:47:37.922Z,17.00
2022-10-29T00:48:38.001Z,17.10
2022-10-29T00:49:37.865Z,16.80
2022-10-29T00:50:37.850Z,17.30
2022-10-29T00:51:37.851Z,17.70
2022-10-29T00:52:37.839Z,18.40
2022-10-29T00:53:37.855Z,17.30
2022-10-29T00:54:37.863Z,17.30
2022-10-29T00:55:37.810Z,17.20
2022-10-29T00:56:37.785Z,17.00
2022-10-29T00:57:37.785Z,17.00
2022-10-29T00:58:37.760Z,17.70
2022-10-29T00:59:37.877Z,17.70
2022-10-29T01:00:38.073Z,16.60
2022-10-29T01:01:37.876Z,15.90
2022-10-29T01:02:37.910Z,15.90
2022-10-29T01:03:37.715Z,16.40
2022-10-29T01:04:37.706Z,16.10
2022-10-29T01:05:37.686Z,16.50
2022-10-29T01:06:37.703Z,16.60
2022-10-29T01:07:37.705Z,16.60
2022-10-29T01:08:37.696Z,16.70
2022-10-29T01:09:37.641Z,15.80
2022-10-29T01:10:37.673Z,16.40
2022-10-29T01:11:37.618Z,16.30
2022-10-29T01:12:37.648Z,17.60
2022-10-29T01:13:37.608Z,17.20
2022-10-29T01:14:37.578Z,17.30
2022-10-29T01:15:37.575Z,18.60
2022-10-29T01:16:37.580Z,17.90
2022-10-29T01:17:37.584Z,18.30
2022-10-29T01:18:37.660Z,18.50
2022-10-29T01:19:37.542Z,18.90
2022-10-29T01:20:37.528Z,18.30
2022-10-29T01:21:37.545Z,18.40
2022-10-29T01:22:37.502Z,18.80
2022-10-29T01:23:37.538Z,18.30
2022-10-29T01:24:37.499Z,18.20
2022-10-29T01:25:37.477Z,18.60
2022-10-29T01:26:37.444Z,18.90
2022-10-29T01:27:37.445Z,18.80
2022-10-29T01:28:37.478Z,19.70
2022-10-29T01:29:37.431Z,19.50
2022-10-29T01:30:37.446Z,20.10
2022-10-29T01:31:37.579Z,20.20
2022-10-29T01:32:37.392Z,20.70
2022-10-29T01:33:37.460Z,20.40
2022-10-29T01:34:38.005Z,19.70
2022-10-29T01:35:37.374Z,20.20
2022-10-29T01:36:37.399Z,20.10
2022-10-29T01:37:37.336Z,20.20
2022-10-29T01:38:37.320Z,20.30
2022-10-29T01:39:37.311Z,20.80
2022-10-29T01:40:37.580Z,21.60
2022-10-29T01:41:38.149Z,21.90
2022-10-29T01:42:37.282Z,20.10
2022-10-29T01:43:37.268Z,21.30
2022-10-29T01:44:37.316Z,21.70
2022-10-29T01:45:37.239Z,21.60
2022-10-29T01:46:37.248Z,20.90
2022-10-29T01:47:37.296Z,22.30
2022-10-29T01:48:37.210Z,22.20
2022-10-29T01:49:37.241Z,21.40
2022-10-29T01:50:37.202Z,21.90
2022-10-29T01:51:37.168Z,16.50
2022-10-29T01:52:37.172Z,17.40
2022-10-29T01:53:37.163Z,14.50
2022-10-29T01:54:37.179Z,13.80
2022-10-29T01:55:37.147Z,15.30
2022-10-29T01:56:37.127Z,18.40
2022-10-29T01:57:37.113Z,18.50
2022-10-29T01:58:37.109Z,18.80
2022-10-29T01:59:51.574Z,19.10
2022-10-29T02:00:37.197Z,20.40
2022-10-29T02:01:37.202Z,20.40
2022-10-29T02:02:37.043Z,18.30
2022-10-29T02:03:37.034Z,19.60
2022-10-29T02:04:37.102Z,12.10
2022-10-29T02:05:37.321Z,11.40
2022-10-29T02:06:37.008Z,13.90
2022-10-29T02:07:37.078Z,10.20
2022-10-29T02:08:37.028Z,9.20
2022-10-29T02:09:36.969Z,11.60
2022-10-29T02:10:36.970Z,15.50
2022-10-29T02:11:36.945Z,17.40
2022-10-29T02:12:36.999Z,19.50
2022-10-29T02:13:36.920Z,22.70
2022-10-29T02:14:36.899Z,21.60
2022-10-29T02:15:36.931Z,24.00
2022-10-29T02:16:36.889Z,23.80
2022-10-29T02:17:37.620Z,25.80
2022-10-29T02:18:36.872Z,26.40
2022-10-29T02:19:36.891Z,23.90
2022-10-29T02:20:36.879Z,26.20
2022-10-29T02:21:36.893Z,24.10
2022-10-29T02:22:36.889Z,26.40
2022-10-29T02:23:36.838Z,23.50
2022-10-29T02:24:36.810Z,24.30
2022-10-29T02:25:36.912Z,26.50
2022-10-29T02:26:36.794Z,25.20
2022-10-29T02:27:36.765Z,26.80
2022-10-29T02:28:36.754Z,26.20
2022-10-29T02:29:36.801Z,27.10
2022-10-29T02:30:36.748Z,28.20
2022-10-29T02:31:36.779Z,30.00
2022-10-29T02:32:36.740Z,29.40
2022-10-29T02:33:36.701Z,29.40
2022-10-29T02:34:36.747Z,28.80
2022-10-29T02:35:36.710Z,30.70
2022-10-29T02:36:36.661Z,31.70
2022-10-29T02:37:36.659Z,33.60
2022-10-29T02:38:36.674Z,34.40
2022-10-29T02:39:36.669Z,30.40
2022-10-29T02:40:36.618Z,32.20
2022-10-29T02:41:36.813Z,35.40
2022-10-29T02:42:36.619Z,37.30
2022-10-29T02:43:37.480Z,31.80
2022-10-29T02:44:36.570Z,33.50
2022-10-29T02:45:36.565Z,35.80
2022-10-29T02:46:36.606Z,35.30
2022-10-29T02:47:36.621Z,32.90
2022-10-29T02:48:36.608Z,30.00
2022-10-29T02:49:36.527Z,37.70
2022-10-29T02:50:36.512Z,31.80
2022-10-29T02:51:36.493Z,31.60
2022-10-29T02:52:36.485Z,39.00
2022-10-29T02:53:36.491Z,32.70
2022-10-29T02:54:36.618Z,33.40
2022-10-29T02:55:36.471Z,31.00
2022-10-29T02:56:36.436Z,31.80
2022-10-29T02:57:36.464Z,33.20
2022-10-29T02:58:36.639Z,29.40
2022-10-29T02:59:36.481Z,31.20
2022-10-29T03:00:36.417Z,31.50
2022-10-29T03:01:36.580Z,31.60
2022-10-29T03:02:36.529Z,30.20
2022-10-29T03:03:36.368Z,36.40
2022-10-29T03:04:36.357Z,35.50
2022-10-29T03:05:36.366Z,34.70
2022-10-29T03:06:36.376Z,35.20
2022-10-29T03:07:36.339Z,35.10
2022-10-29T03:08:36.312Z,32.90
2022-10-29T03:09:36.292Z,34.40
2022-10-29T03:10:36.306Z,36.80
2022-10-29T03:11:36.326Z,33.90
2022-10-29T03:12:36.271Z,35.90
2022-10-29T03:14:35.229Z,39.00
2022-10-29T03:15:36.235Z,37.50
2022-10-29T03:16:42.289Z,35.60
2022-10-29T03:17:42.985Z,36.40
2022-10-29T03:18:36.280Z,36.00
2022-10-29T03:19:36.182Z,37.70
2022-10-29T03:20:36.182Z,35.40
2022-10-29T03:21:36.214Z,36.20
2022-10-29T03:22:36.165Z,39.00
2022-10-29T03:23:36.203Z,36.20
2022-10-29T03:24:36.120Z,38.80
2022-10-29T03:25:36.147Z,41.70
2022-10-29T03:26:36.104Z,33.40
2022-10-29T03:27:36.212Z,34.20
2022-10-29T03:28:36.724Z,34.50
2022-10-29T03:29:36.096Z,32.00
2022-10-29T03:30:36.086Z,34.00
2022-10-29T03:31:36.052Z,30.70
2022-10-29T03:32:36.040Z,31.80
2022-10-29T03:33:36.100Z,29.50
2022-10-29T03:34:36.038Z,31.90
2022-10-29T03:35:36.033Z,30.10
2022-10-29T03:36:35.988Z,29.80
2022-10-29T03:37:35.983Z,30.10
2022-10-29T03:38:36.020Z,28.70
2022-10-29T03:39:36.010Z,30.00
2022-10-29T03:40:35.972Z,30.70
2022-10-29T03:41:35.965Z,29.20
2022-10-29T03:42:35.921Z,27.80
2022-10-29T03:43:35.917Z,28.90
2022-10-29T03:44:35.966Z,29.20
2022-10-29T03:45:35.896Z,27.70
2022-10-29T03:46:35.877Z,30.70
2022-10-29T03:47:35.878Z,30.70
2022-10-29T03:48:35.865Z,30.10
2022-10-29T03:49:35.909Z,28.90
2022-10-29T03:50:36.102Z,31.10
2022-10-29T03:51:35.835Z,27.60
2022-10-29T03:52:35.811Z,29.70
2022-10-29T03:53:35.802Z,32.80
2022-10-29T03:54:36.704Z,29.20
2022-10-29T03:55:35.803Z,30.90
2022-10-29T03:56:35.775Z,29.30
2022-10-29T03:57:35.798Z,29.90
2022-10-29T03:58:35.741Z,38.30
2022-10-29T03:59:35.735Z,35.50
2022-10-29T04:00:35.728Z,31.40
2022-10-29T04:01:35.861Z,30.30
2022-10-29T04:02:35.981Z,30.70
2022-10-29T04:03:35.719Z,29.90
2022-10-29T04:04:35.679Z,30.50
2022-10-29T04:05:35.666Z,29.30
2022-10-29T04:06:35.667Z,27.60
2022-10-29T04:07:35.705Z,31.60
2022-10-29T04:08:35.672Z,28.10
2022-10-29T04:09:35.622Z,31.50
2022-10-29T04:10:35.615Z,29.40
2022-10-29T04:11:35.610Z,31.80
2022-10-29T04:13:04.210Z,26.80
2022-10-29T04:13:35.647Z,29.60
2022-10-29T04:14:41.345Z,30.90
2022-10-29T04:15:35.741Z,29.50
2022-10-29T04:16:35.546Z,32.80
2022-10-29T04:17:36.163Z,31.00
2022-10-29T04:18:35.528Z,29.80
2022-10-29T04:19:35.545Z,32.50
2022-10-29T04:20:47.615Z,33.80
2022-10-29T04:28:43.090Z,27.50
2022-10-29T04:29:35.417Z,27.70
2022-10-29T04:30:35.424Z,24.10
2022-10-29T04:31:35.437Z,28.70
2022-10-29T04:32:35.360Z,27.20
2022-10-29T04:33:35.463Z,29.10
2022-10-29T04:34:35.340Z,30.10
2022-10-29T04:35:35.371Z,28.60
2022-10-29T04:36:36.196Z,27.30
2022-10-29T04:37:35.350Z,31.70
2022-10-29T04:38:35.346Z,29.70
2022-10-29T04:39:35.287Z,30.60
2022-10-29T04:40:35.287Z,28.30
2022-10-29T04:41:35.295Z,29.80
2022-10-29T04:42:35.294Z,32.00
2022-10-29T04:43:35.278Z,28.60
2022-10-29T04:44:35.226Z,30.90
2022-10-29T04:45:35.331Z,27.70
2022-10-29T04:46:35.242Z,30.70
2022-10-29T04:47:35.200Z,30.00
2022-10-29T04:48:35.247Z,29.80
2022-10-29T04:49:35.217Z,30.40
2022-10-29T04:50:35.174Z,32.90
2022-10-29T04:51:35.214Z,29.80
2022-10-29T04:52:35.144Z,30.10
2022-10-29T04:53:35.141Z,32.70
2022-10-29T04:54:35.158Z,30.20
2022-10-29T04:55:35.142Z,30.20
2022-10-29T04:56:35.099Z,28.90
2022-10-29T04:57:35.123Z,30.70
2022-10-29T04:58:35.079Z,31.00
2022-10-29T04:59:35.120Z,28.70
2022-10-29T05:00:35.197Z,28.40
2022-10-29T05:02:35.109Z,29.90
2022-10-29T05:03:35.044Z,28.70
2022-10-29T05:04:35.050Z,27.90
2022-10-29T05:05:35.018Z,29.40
2022-10-29T05:06:34.985Z,29.30
2022-10-29T05:07:34.977Z,27.40
2022-10-29T05:08:34.964Z,27.00
2022-10-29T05:09:34.991Z,26.90
2022-10-29T05:10:34.952Z,27.40
2022-10-29T05:11:34.924Z,27.30
2022-10-29T05:12:34.919Z,25.50
2022-10-29T05:13:34.914Z,26.20
2022-10-29T05:14:34.894Z,26.70
2022-10-29T05:15:34.916Z,29.10
2022-10-29T05:16:34.868Z,26.70
2022-10-29T05:17:34.856Z,29.00
2022-10-29T05:18:34.893Z,28.60
2022-10-29T05:19:34.893Z,26.70
2022-10-29T05:20:34.825Z,28.90
2022-10-29T05:21:34.817Z,27.80
2022-10-29T05:22:34.802Z,29.80
2022-10-29T05:23:34.795Z,29.30
2022-10-29T05:24:35.659Z,27.40
2022-10-29T05:25:34.825Z,29.00
2022-10-29T05:26:34.759Z,27.30
2022-10-29T05:27:34.790Z,26.00
2022-10-29T05:28:40.721Z,28.60
2022-10-29T05:29:40.686Z,31.30
2022-10-29T05:30:41.697Z,31.20
2022-10-29T05:31:34.701Z,26.10
2022-10-29T05:33:34.676Z,29.70
2022-10-29T05:34:34.671Z,31.60
2022-10-29T05:35:34.669Z,32.20
2022-10-29T05:36:35.197Z,29.20
2022-10-29T05:37:34.676Z,28.40
2022-10-29T05:38:34.651Z,27.70
2022-10-29T05:39:34.638Z,29.50
2022-10-29T05:40:34.614Z,28.10
2022-10-29T05:41:34.587Z,28.00
2022-10-29T05:42:34.590Z,28.50
2022-10-29T05:43:34.600Z,28.50
2022-10-29T05:44:34.800Z,29.60
2022-10-29T05:45:34.554Z,28.80
2022-10-29T05:46:34.573Z,29.40
2022-10-29T05:47:34.513Z,28.10
2022-10-29T05:48:34.516Z,31.00
2022-10-29T05:49:34.505Z,31.40
2022-10-29T05:50:34.495Z,27.60
2022-10-29T05:51:35.227Z,31.10
2022-10-29T05:52:35.228Z,30.60
2022-10-29T05:53:34.460Z,28.50
2022-10-29T05:54:34.443Z,28.60
2022-10-29T05:55:34.687Z,26.60
2022-10-29T05:56:34.505Z,26.20
2022-10-29T05:57:34.425Z,26.70
2022-10-29T05:58:34.397Z,26.90
2022-10-29T05:59:34.384Z,26.90
2022-10-29T06:00:40.353Z,27.60
2022-10-29T06:01:40.849Z,26.10
2022-10-29T06:02:35.318Z,26.10
2022-10-29T06:03:34.349Z,29.20
2022-10-29T06:04:34.346Z,28.40
2022-10-29T06:05:34.508Z,29.40
2022-10-29T06:06:34.382Z,29.90
2022-10-29T06:07:34.340Z,26.20
2022-10-29T06:08:34.307Z,29.20
2022-10-29T06:09:34.404Z,29.60
2022-10-29T06:10:34.268Z,30.40
2022-10-29T06:11:34.242Z,29.90
2022-10-29T06:12:34.960Z,28.90
2022-10-29T06:13:34.298Z,28.20
2022-10-29T06:14:34.238Z,29.20
2022-10-29T06:15:35.299Z,27.80
2022-10-29T06:16:34.202Z,29.00
2022-10-29T06:17:34.240Z,29.30
2022-10-29T06:18:34.192Z,26.80
2022-10-29T06:19:34.235Z,27.70
2022-10-29T06:20:34.206Z,28.90
2022-10-29T06:21:34.144Z,28.20
2022-10-29T06:22:34.857Z,30.30
2022-10-29T06:23:34.118Z,31.20
2022-10-29T06:24:34.101Z,28.40
2022-10-29T06:25:34.737Z,31.50
2022-10-29T06:26:34.170Z,28.70
2022-10-29T06:27:34.125Z,34.40
2022-10-29T06:28:35.132Z,29.50
2022-10-29T06:29:34.112Z,28.40
2022-10-29T06:30:34.074Z,30.40
2022-10-29T06:31:34.075Z,32.30
2022-10-29T06:32:34.008Z,33.10
2022-10-29T06:33:34.170Z,32.20
2022-10-29T06:34:33.993Z,31.80
2022-10-29T06:36:34.009Z,29.60
2022-10-29T06:37:33.982Z,31.80
2022-10-29T06:38:33.950Z,32.00
2022-10-29T06:39:33.937Z,34.40
2022-10-29T06:40:33.921Z,30.10
2022-10-29T06:41:33.942Z,31.30
2022-10-29T06:42:33.898Z,32.00
2022-10-29T06:43:33.937Z,30.30
2022-10-29T06:44:33.938Z,29.80
2022-10-29T06:45:33.875Z,27.60
2022-10-29T06:46:33.858Z,29.80
2022-10-29T06:47:33.842Z,30.50
2022-10-29T06:48:33.851Z,28.30
2022-10-29T06:49:33.869Z,28.80
2022-10-29T06:50:33.817Z,27.30
2022-10-29T06:51:33.955Z,27.20
2022-10-29T06:52:33.786Z,27.00
2022-10-29T06:53:33.778Z,25.80
2022-10-29T06:54:33.800Z,27.10
2022-10-29T06:55:33.751Z,25.60
2022-10-29T06:56:34.255Z,25.20
2022-10-29T06:57:33.770Z,26.90
2022-10-29T06:58:33.720Z,24.20
2022-10-29T06:59:33.710Z,24.90
2022-10-29T07:00:33.838Z,26.10
2022-10-29T07:01:33.864Z,25.20
2022-10-29T07:02:33.676Z,26.30
2022-10-29T07:03:33.677Z,25.70
2022-10-29T07:04:33.661Z,24.90
2022-10-29T07:05:33.673Z,23.80
2022-10-29T07:06:33.907Z,25.50
2022-10-29T07:07:33.626Z,26.00
2022-10-29T07:08:33.905Z,23.60
2022-10-29T07:09:33.596Z,24.90
2022-10-29T07:10:33.616Z,25.40
2022-10-29T07:11:33.568Z,23.30
2022-10-29T07:12:33.564Z,24.80
2022-10-29T07:13:34.589Z,24.50
2022-10-29T07:14:33.590Z,23.10
2022-10-29T07:15:33.812Z,26.40
2022-10-29T07:16:33.517Z,23.10
2022-10-29T07:17:33.542Z,23.10
2022-10-29T07:18:34.268Z,22.10
2022-10-29T07:19:33.543Z,23.00
2022-10-29T07:20:33.481Z,23.20
2022-10-29T07:21:33.454Z,21.90
2022-10-29T07:22:34.880Z,22.10
2022-10-29T07:23:33.461Z,21.10
2022-10-29T07:24:33.512Z,21.50
2022-10-29T07:25:33.477Z,20.60
2022-10-29T07:26:33.443Z,19.40
2022-10-29T07:27:33.418Z,21.30
2022-10-29T07:28:33.399Z,20.00
2022-10-29T07:29:33.400Z,18.70
2022-10-29T07:30:33.381Z,20.70
2022-10-29T07:31:33.394Z,19.60
2022-10-29T07:32:33.340Z,19.90
2022-10-29T07:33:33.337Z,19.20
2022-10-29T07:34:33.321Z,20.00
2022-10-29T07:35:33.330Z,17.80
2022-10-29T07:36:33.360Z,18.90
2022-10-29T07:37:33.300Z,20.50
2022-10-29T07:38:33.275Z,19.70
2022-10-29T07:39:33.274Z,20.10
2022-10-29T07:40:33.283Z,20.20
2022-10-29T07:41:33.308Z,19.40
2022-10-29T07:42:33.531Z,20.50
2022-10-29T07:43:33.204Z,19.50
2022-10-29T07:44:33.226Z,19.60
2022-10-29T07:45:33.196Z,19.20
2022-10-29T07:46:33.196Z,20.00
2022-10-29T07:47:33.215Z,19.60
2022-10-29T07:48:33.172Z,19.90
2022-10-29T07:49:33.159Z,21.10
2022-10-29T07:50:33.128Z,23.00
2022-10-29T07:51:33.186Z,21.60
2022-10-29T07:52:33.170Z,20.90
2022-10-29T07:53:33.122Z,21.10
2022-10-29T07:54:33.103Z,20.30
2022-10-29T07:55:33.125Z,20.60
2022-10-29T07:56:33.781Z,19.90
2022-10-29T07:57:33.092Z,19.20
2022-10-29T07:58:33.062Z,18.70
2022-10-29T07:59:33.338Z,19.20
2022-10-29T08:00:33.094Z,18.60
2022-10-29T08:01:33.129Z,18.40
2022-10-29T08:02:34.045Z,21.40
2022-10-29T08:03:33.014Z,18.70
2022-10-29T08:04:32.995Z,18.70
2022-10-29T08:05:33.014Z,20.40
2022-10-29T08:06:32.954Z,19.40
2022-10-29T08:07:34.046Z,19.90
2022-10-29T08:08:32.962Z,20.80
2022-10-29T08:09:33.173Z,20.30
2022-10-29T08:10:32.945Z,20.30
2022-10-29T08:11:33.079Z,20.50
2022-10-29T08:12:32.922Z,21.00
2022-10-29T08:13:32.879Z,18.70
2022-10-29T08:14:32.856Z,20.90
2022-10-29T08:15:32.913Z,18.60
2022-10-29T08:16:32.915Z,21.00
2022-10-29T08:17:32.847Z,21.10
2022-10-29T08:18:32.841Z,20.70
2022-10-29T08:19:32.803Z,20.00
2022-10-29T08:20:32.842Z,19.90
2022-10-29T08:21:32.781Z,19.30
2022-10-29T08:22:32.820Z,19.30
2022-10-29T08:23:32.785Z,18.60
2022-10-29T08:24:32.755Z,22.60
2022-10-29T08:25:32.792Z,19.60
2022-10-29T08:26:32.739Z,20.50
2022-10-29T08:27:32.785Z,18.20
2022-10-29T08:28:35.666Z,18.80
2022-10-29T08:29:32.698Z,19.60
2022-10-29T08:30:33.001Z,18.80
2022-10-29T08:31:32.681Z,18.70
2022-10-29T08:32:33.221Z,18.60
2022-10-29T08:33:32.707Z,18.70
2022-10-29T08:34:32.920Z,18.20
2022-10-29T08:35:32.636Z,17.60
2022-10-29T08:36:32.621Z,18.50
2022-10-29T08:37:32.610Z,17.70
2022-10-29T08:38:32.649Z,18.50
2022-10-29T08:39:32.603Z,17.90
2022-10-29T08:40:32.577Z,18.20
2022-10-29T08:41:32.558Z,17.70
2022-10-29T08:42:32.601Z,18.50
2022-10-29T08:43:32.548Z,17.20
2022-10-29T08:44:32.787Z,18.10
2022-10-29T08:45:32.531Z,19.10
2022-10-29T08:46:32.559Z,18.80
2022-10-29T08:47:32.515Z,18.30
2022-10-29T08:48:32.478Z,18.20
2022-10-29T08:49:32.519Z,18.60
2022-10-29T08:50:32.459Z,19.70
2022-10-29T08:51:32.452Z,18.70
2022-10-29T08:52:32.440Z,19.60
2022-10-29T08:53:33.885Z,19.70
2022-10-29T08:54:32.605Z,20.60
2022-10-29T08:55:32.419Z,20.60
2022-10-29T08:56:32.403Z,20.10
2022-10-29T08:57:32.439Z,21.30
2022-10-29T08:58:32.695Z,19.90
2022-10-29T08:59:32.405Z,19.10
2022-10-29T09:00:33.183Z,21.20
2022-10-29T09:01:32.437Z,20.70
2022-10-29T09:02:32.390Z,21.80
2022-10-29T09:03:33.094Z,21.60
2022-10-29T09:04:32.348Z,23.70
2022-10-29T09:05:32.344Z,21.30
2022-10-29T09:06:32.331Z,20.50
2022-10-29T09:07:32.268Z,20.00
2022-10-29T09:08:32.255Z,19.50
2022-10-29T09:09:32.268Z,20.00
2022-10-29T09:10:32.289Z,20.50
2022-10-29T09:11:32.225Z,19.10
2022-10-29T09:12:32.233Z,21.70
2022-10-29T09:13:32.214Z,21.60
2022-10-29T09:14:32.768Z,20.40
2022-10-29T09:15:32.224Z,21.60
2022-10-29T09:16:32.214Z,21.30
2022-10-29T09:17:32.162Z,19.80
2022-10-29T09:18:32.152Z,19.30
2022-10-29T09:19:32.145Z,18.20
2022-10-29T09:20:33.731Z,18.80
2022-10-29T09:21:32.237Z,17.00
2022-10-29T09:22:32.157Z,17.40
2022-10-29T09:23:32.090Z,18.10
2022-10-29T09:24:32.069Z,18.40
2022-10-29T09:25:32.092Z,18.30
2022-10-29T09:26:32.213Z,19.50
2022-10-29T09:27:32.732Z,19.20
2022-10-29T09:28:32.039Z,18.80
2022-10-29T09:29:32.041Z,19.40
2022-10-29T09:30:32.015Z,18.40
2022-10-29T09:31:32.280Z,19.50
2022-10-29T09:32:31.991Z,19.30
2022-10-29T09:33:32.008Z,20.30
2022-10-29T09:34:31.993Z,19.60
2022-10-29T09:35:31.959Z,20.50
2022-10-29T09:36:32.001Z,21.40
2022-10-29T09:37:31.989Z,21.80
2022-10-29T09:38:32.037Z,20.70
2022-10-29T09:39:34.284Z,21.60
2022-10-29T09:40:31.906Z,21.40
2022-10-29T09:41:31.933Z,21.30
2022-10-29T09:42:31.878Z,22.30
2022-10-29T09:43:31.889Z,20.50
2022-10-29T09:44:33.021Z,21.40
2022-10-29T09:45:31.860Z,22.00
2022-10-29T09:46:32.003Z,22.20
2022-10-29T09:47:31.835Z,23.10
2022-10-29T09:48:31.815Z,22.60
2022-10-29T09:49:31.857Z,23.40
2022-10-29T09:50:31.817Z,22.10
2022-10-29T09:51:31.785Z,22.00
2022-10-29T09:52:31.773Z,24.40
2022-10-29T09:53:31.800Z,21.80
2022-10-29T09:54:31.789Z,22.70
2022-10-29T09:55:31.797Z,22.70
2022-10-29T09:56:31.738Z,23.50
2022-10-29T09:57:31.837Z,24.00
2022-10-29T09:58:31.717Z,24.00
2022-10-29T09:59:31.702Z,23.00
2022-10-29T10:00:31.788Z,23.00
2022-10-29T10:01:31.739Z,22.80
2022-10-29T10:02:31.750Z,23.20
2022-10-29T10:03:31.713Z,23.30
2022-10-29T10:04:31.671Z,22.20
2022-10-29T10:05:31.627Z,23.10
2022-10-29T10:06:31.637Z,23.80
2022-10-29T10:07:31.605Z,23.30
2022-10-29T10:08:31.626Z,24.60
2022-10-29T10:09:32.089Z,23.00
2022-10-29T10:10:31.620Z,24.10
2022-10-29T10:11:31.557Z,23.10
2022-10-29T10:12:31.588Z,23.80
2022-10-29T10:13:31.570Z,25.00
2022-10-29T10:14:31.548Z,24.60
2022-10-29T10:15:32.231Z,24.10
2022-10-29T10:16:31.541Z,23.80
2022-10-29T10:17:31.770Z,23.40
2022-10-29T10:18:31.593Z,24.20
2022-10-29T10:19:31.470Z,24.10
2022-10-29T10:20:31.472Z,24.40
2022-10-29T10:21:31.511Z,24.20
2022-10-29T10:22:31.437Z,25.30
2022-10-29T10:23:31.429Z,24.30
2022-10-29T10:24:31.479Z,25.90
2022-10-29T10:25:31.517Z,24.30
2022-10-29T10:26:31.426Z,23.30
2022-10-29T10:27:31.382Z,23.60
2022-10-29T10:28:31.472Z,24.80
2022-10-29T10:29:31.363Z,24.30
2022-10-29T10:30:31.348Z,24.90
2022-10-29T10:31:31.611Z,24.10
2022-10-29T10:32:31.325Z,23.90
2022-10-29T10:33:31.371Z,23.50
2022-10-29T10:34:31.302Z,23.90
2022-10-29T10:35:31.292Z,23.50
2022-10-29T10:36:31.291Z,23.20
2022-10-29T10:37:31.272Z,23.90
2022-10-29T10:38:31.368Z,23.70
2022-10-29T10:39:31.251Z,24.70
2022-10-29T10:40:31.240Z,24.20
2022-10-29T10:41:31.226Z,24.30
2022-10-29T10:42:31.281Z,25.10
2022-10-29T10:43:31.214Z,24.40
2022-10-29T10:44:31.208Z,25.50
2022-10-29T10:45:32.086Z,24.50
2022-10-29T10:46:31.184Z,23.90
2022-10-29T10:47:31.227Z,24.70
2022-10-29T10:48:33.786Z,25.10
2022-10-29T10:49:31.171Z,24.50
2022-10-29T10:50:34.516Z,25.80
2022-10-29T10:51:31.427Z,25.20
2022-10-29T10:53:41.780Z,24.70
2022-10-29T10:54:42.734Z,26.50
2022-10-29T10:55:42.703Z,26.40
2022-10-29T10:56:42.698Z,25.50
2022-10-29T10:57:42.730Z,26.40
2022-10-29T10:58:43.809Z,25.70
2022-10-29T10:59:42.665Z,26.90
2022-10-29T11:00:42.832Z,27.20
2022-10-29T11:01:42.832Z,26.10
2022-10-29T11:02:42.679Z,27.70
2022-10-29T11:03:42.761Z,28.20
2022-10-29T11:04:42.634Z,27.80
2022-10-29T11:05:43.466Z,28.50
2022-10-29T11:06:42.773Z,28.10
2022-10-29T11:07:42.607Z,28.80
2022-10-29T11:08:42.735Z,30.20
2022-10-29T11:09:42.705Z,29.00
2022-10-29T11:10:42.815Z,28.20
2022-10-29T11:11:42.545Z,28.90
2022-10-29T11:12:42.545Z,28.60
2022-10-29T11:13:42.584Z,28.20
2022-10-29T11:14:42.502Z,27.50
2022-10-29T11:15:43.328Z,27.60
2022-10-29T11:16:42.587Z,28.00
2022-10-29T11:17:42.529Z,28.10
2022-10-29T11:18:42.529Z,28.90
2022-10-29T11:19:42.460Z,27.40
2022-10-29T11:20:42.485Z,26.80
2022-10-29T11:21:42.456Z,26.20
2022-10-29T11:22:42.485Z,27.70
2022-10-29T11:23:43.121Z,27.90
2022-10-29T11:24:42.486Z,26.70
2022-10-29T11:25:42.403Z,27.40
2022-10-29T11:26:43.330Z,26.60
2022-10-29T11:27:42.350Z,27.10
2022-10-29T11:28:42.343Z,26.50
2022-10-29T11:29:47.467Z,25.80
2022-10-29T11:30:43.762Z,26.30
2022-10-29T11:31:42.420Z,26.50
2022-10-29T11:32:42.368Z,26.80
2022-10-29T11:33:42.306Z,26.10
2022-10-29T11:34:41.309Z,26.80
2022-10-29T11:35:42.278Z,27.40
2022-10-29T11:36:43.325Z,26.20
2022-10-29T11:37:42.559Z,26.80
2022-10-29T11:38:42.278Z,27.30
2022-10-29T11:39:42.201Z,25.80
2022-10-29T11:40:42.191Z,25.90
2022-10-29T11:41:42.223Z,25.60
2022-10-29T11:42:42.196Z,26.40
2022-10-29T11:43:42.153Z,26.60
2022-10-29T11:44:42.158Z,26.00
2022-10-29T11:45:42.122Z,25.60
2022-10-29T11:46:42.142Z,25.80
2022-10-29T11:47:42.096Z,26.10
2022-10-29T11:48:42.239Z,25.90
2022-10-29T11:49:42.287Z,26.00
2022-10-29T11:50:42.091Z,24.70
2022-10-29T11:51:42.144Z,25.70
2022-10-29T11:52:42.103Z,26.40
2022-10-29T11:53:42.047Z,25.50
2022-10-29T11:54:42.094Z,26.90
2022-10-29T11:55:42.052Z,25.80
2022-10-29T11:56:42.233Z,26.80
2022-10-29T11:57:41.994Z,26.90
2022-10-29T11:58:42.014Z,28.10
2022-10-29T11:59:42.029Z,27.30
2022-10-29T12:00:42.056Z,28.00
2022-10-29T12:01:42.033Z,28.20
2022-10-29T12:02:42.001Z,27.80
2022-10-29T12:03:41.974Z,29.00
2022-10-29T12:04:41.954Z,28.90
2022-10-29T12:05:42.008Z,29.60
2022-10-29T12:06:41.991Z,29.60
2022-10-29T12:07:42.664Z,29.10
2022-10-29T12:08:42.000Z,28.70
2022-10-29T12:09:41.921Z,29.90
2022-10-29T12:10:41.849Z,28.80
2022-10-29T12:11:43.271Z,29.90
2022-10-29T12:12:41.848Z,29.80
2022-10-29T12:13:41.908Z,30.10
2022-10-29T12:14:41.818Z,30.10
2022-10-29T12:15:41.806Z,30.40
2022-10-29T12:16:41.805Z,29.50
2022-10-29T12:17:41.911Z,30.30
2022-10-29T12:18:42.796Z,29.60
2022-10-29T12:19:41.779Z,29.50
2022-10-29T12:20:41.755Z,29.00
2022-10-29T12:21:41.726Z,29.60
2022-10-29T12:22:41.713Z,28.60
2022-10-29T12:23:41.784Z,29.00
2022-10-29T12:24:41.697Z,29.30
2022-10-29T12:25:41.715Z,29.20
2022-10-29T12:26:41.742Z,29.50
2022-10-29T12:27:41.680Z,28.70
2022-10-29T12:28:47.914Z,28.80
2022-10-29T12:29:41.703Z,29.10
2022-10-29T12:30:41.612Z,29.20
2022-10-29T12:31:41.659Z,29.10
2022-10-29T12:32:41.669Z,28.00
2022-10-29T12:33:41.632Z,28.00
2022-10-29T12:34:41.575Z,28.10
2022-10-29T12:35:41.609Z,27.50
2022-10-29T12:36:41.603Z,26.50
2022-10-29T12:37:41.661Z,26.80
2022-10-29T12:38:41.540Z,26.70
2022-10-29T12:39:41.515Z,27.00
2022-10-29T12:40:41.517Z,27.10
2022-10-29T12:41:41.545Z,26.80
2022-10-29T12:42:41.509Z,29.50
2022-10-29T12:43:41.467Z,27.60
2022-10-29T12:44:45.058Z,26.60
2022-10-29T12:45:59.547Z,27.30
2022-10-29T12:46:41.437Z,25.40
2022-10-29T12:47:41.494Z,27.30
2022-10-29T12:48:41.432Z,26.50
2022-10-29T12:49:41.402Z,27.60
2022-10-29T12:50:41.414Z,26.50
2022-10-29T12:51:41.823Z,26.10
2022-10-29T12:52:41.565Z,26.00
2022-10-29T12:53:41.410Z,24.80
2022-10-29T12:54:42.267Z,25.90
2022-10-29T12:55:41.358Z,26.50
2022-10-29T12:56:43.923Z,26.80
2022-10-29T12:57:41.314Z,26.60
2022-10-29T12:58:41.362Z,26.00
2022-10-29T12:59:41.297Z,26.00
2022-10-29T13:00:41.311Z,26.90
2022-10-29T13:02:09.822Z,27.30
2022-10-29T13:02:41.638Z,27.50
2022-10-29T13:03:42.412Z,27.40
2022-10-29T13:04:41.238Z,27.00
2022-10-29T13:05:41.213Z,26.20